Capitol Logistics 365


KRFD
Chicago/Rockford International Airport
Rockford, Illinois, US
CYHZ
Robert L. Stanfield International Airport
Halifax, , CA

Activity Log

Date Flight Route Aircraft Duration
02/04/2020 CPX365 RONIC ADALE FNT Q822 ALLEX FUNDY3 B763 2h 41m
01/29/2020 CPX365 OBK J547 FNT Q818 DERLO Q913 CABCI Q29 EBONY FUNDY3 B763 2h 46m
01/12/2020 CPX365 OBK J547 FNT Q818 DERLO Q913 CABCI Q29 EBONY FUNDY3 B763 2h 31m
01/08/2020 CPX365 OBK J547 FNT Q818 DERLO Q913 CABCI Q29 EBONY FUNDY3 B763 2h 43m
12/23/2019 CPX365 RONIC ADALE FNT Q822 ALLEX FUNDY3 B763 2h 37m
11/29/2019 CPX365 RONIC ADALE FNT Q822 ALLEX FUNDY3 B763 2h 35m
07/16/2019 CPX365 RONIC ADALE FNT Q822 ALLEX FUNDY3 B763 2h 46m
04/03/2019 CPX365 RONIC ADALE FNT Q822 ALLEX FUNDY3 B763 3h 00m

Route Details

Aircraft Information
Primary: Boeing 767-300BDSF
Backup: Not Available
Route Data
Distance: 1123nm
Sched. Duration: 2h 45m
Avg. Duration: 2h 47m (+2m)
Times Flown: 8
Recm'd Route: RONIC ADALE FNT Q822 ALLEX FUNDY3
Planned Altitude: 35,000ft
Origin Wx: KRFD 181554Z 31013G22KT 10SM OVC021 00/M04 A3018 RMK AO2 SLP228 T00001044
Dest. Wx: CYHZ 181600Z VRB02KT 15SM BKN250 M07/M14 A3054 RMK CS7 SLP353
Notes:

Financial History
Total Freight: 352,061lbs
Average Load: 44,008lbs/flt
Fuel Used: 198,282lbs
Avg. Fuel Used: 24,785lbs/flt
Fuel Expense: $145,195
Avg. Fuel Expense: $18,149
Avg. Fuel Cost: $0.73/lbs
Total Gross Income: $507,705
Pilot Pay: $1,712
Total Expenses: $55,248
Total Revenue: $302,882
Average Revenue: $63,463.15